S. Maria Di Leuca, Italy
Alba: 4:59 AM UTC1
Tramonto: 6:39 PM UTC1
 Lat: 39.82N, Lon: 18.35E
ICAO Used: LIBY
Condizioni Meteo Attuali Aggiornate: 17.08.2018 alle 18:55 UTC
Parz Nuvoloso
Parz Nuvoloso
Parz Nuvoloso
Temp: 25°C
Umidita': 83%
Direz/Vel. Vento: NNE 4 / KT raffiche
Pressione: 1013 hPa
Punto di rugiada: 22°C
Temperatura percepita: 26°C
Visibilitą: >10 KM (ottima)
Temperatura percepita in
presenza di vento (Wind Chill)
:
N/D
T. max (ultime 24 ore): 27°C
T. min (ultime 24 ore): 21°C


METAR ORIGINALE
LIBY 171855Z 03004KT 9999 FEW030 25/22 Q1013 RMK FEW QUK / QUL / VIS MAR 10 KM VIS MIN 9999



[ Indietro ]


Elaborazione dati by Datameteo.com - Lrc srl Copyright ©, All rights reserved.